Time;durP1;ratioP1;P1;durP2;ratioP2;P2;SDS_P1;SDS_P2;PMS_P1;PMS_P2;Temp;Humidity;BMP_temperature;BMP_pressure;BME280_temperature;BME280_humidity;BME280_pressure;Samples;Min_cycle;Max_cycle;Signal;HPM_P1;HPM_P2
2022/04/14 00:00:42;;;;;;;;;;;11.20;99.90;;;9.88;98.34;95504.84;10534071;28;1860;-70
2022/04/14 00:05:45;;;;;;;;;;;11.10;99.90;;;9.85;99.30;95505.38;10540686;28;1848;-70
2022/04/14 00:10:48;;;;;;;;;;;11.10;99.90;;;9.82;99.25;95511.31;10536972;28;1956;-71
2022/04/14 00:15:51;;;;;;;;;;;11.00;99.90;;;9.75;100.00;95516.97;10532096;28;1850;-71
2022/04/14 00:20:54;;;;;;;;;;;11.00;99.90;;;9.59;100.00;95515.41;10524582;28;1810;-70
2022/04/14 00:25:57;;;;;;;;;;;10.90;99.90;;;9.61;100.00;95524.00;10526186;28;1883;-70
2022/04/14 00:31:01;;;;;;;;;;;10.90;99.90;;;9.55;100.00;95530.47;10527923;28;1967;-70
2022/04/14 00:36:04;;;;;;;;;;;10.80;99.90;;;9.50;100.00;95531.28;10537620;28;2026;-70
2022/04/14 00:41:07;;;;;;;;;;;10.80;99.90;;;9.46;100.00;95532.88;10523917;28;2245;-70
2022/04/14 00:46:10;;;;;;;;;;;10.70;99.90;;;9.47;100.00;95542.53;10540202;28;1954;-70
2022/04/14 00:51:14;;;;;;;;;;;10.60;99.90;;;9.41;100.00;95531.00;10535999;28;2033;-70
2022/04/14 00:56:17;;;;;;;;;;;10.70;99.90;;;9.26;100.00;95540.97;10544593;28;1864;-70
2022/04/14 01:01:21;;;;;;;;;;;10.60;99.90;;;9.16;100.00;95542.59;10546409;28;1855;-70
2022/04/14 01:06:24;;;;;;;;;;;10.40;99.90;;;9.08;100.00;95540.44;10544279;28;1902;-70
2022/04/14 01:11:27;;;;;;;;;;;10.30;99.90;;;9.04;100.00;95547.44;10547847;28;1981;-68
2022/04/14 01:16:30;;;;;;;;;;;10.20;99.90;;;9.01;100.00;95549.84;10540759;28;1907;-70
2022/04/14 01:21:34;;;;;;;;;;;10.20;99.90;;;8.95;100.00;95549.03;10536749;28;1900;-70
2022/04/14 01:26:38;;;;;;;;;;;10.20;99.90;;;8.93;100.00;95552.00;10538194;28;1942;-70
2022/04/14 01:31:41;;;;;;;;;;;10.20;99.90;;;8.94;100.00;95556.28;10545709;28;2159;-70
2022/04/14 01:36:44;;;;;;;;;;;10.20;99.90;;;8.95;100.00;95551.72;10536580;28;1842;-70
2022/04/14 01:41:47;;;;;;;;;;;10.10;99.90;;;8.91;100.00;95572.09;10543409;28;2190;-70
2022/04/14 01:46:51;;;;;;;;;;;10.10;99.90;;;8.94;100.00;95560.84;10516275;28;1881;-70
2022/04/14 01:51:54;;;;;;;;;;;10.10;99.90;;;8.91;100.00;95564.06;10536518;28;1979;-69
2022/04/14 01:56:58;;;;;;;;;;;10.10;99.90;;;8.85;100.00;95573.19;10543875;28;1951;-70
2022/04/14 02:02:03;;;;;;;;;;;10.10;99.90;;;8.78;100.00;95581.47;10541390;28;1863;-70
2022/04/14 02:07:06;;;;;;;;;;;10.00;99.90;;;8.76;100.00;95574.75;10540392;28;1986;-70
2022/04/14 02:12:11;;;;;;;;;;;9.90;99.90;;;8.76;100.00;95577.44;10529623;28;2051;-69
2022/04/14 02:17:14;;;;;;;;;;;10.00;99.90;;;8.72;100.00;95576.38;10535805;28;2032;-69
2022/04/14 02:22:18;;;;;;;;;;;9.90;99.90;;;8.66;100.00;95579.03;10543113;28;1978;-69
2022/04/14 02:27:22;;;;;;;;;;;9.80;99.90;;;8.62;100.00;95583.31;10543272;28;1911;-69
2022/04/14 02:32:25;;;;;;;;;;;9.80;99.90;;;8.54;100.00;95583.84;10545692;28;2213;-70
2022/04/14 02:37:28;;;;;;;;;;;9.80;99.90;;;8.57;100.00;95587.84;10529936;28;2256;-70
2022/04/14 02:42:32;;;;;;;;;;;9.60;99.90;;;8.63;100.00;95584.91;10544780;28;1844;-70
2022/04/14 02:47:36;;;;;;;;;;;9.70;99.90;;;8.65;100.00;95580.13;10536236;28;1822;-70
2022/04/14 02:52:39;;;;;;;;;;;9.90;99.90;;;8.59;100.00;95580.38;10546086;28;1935;-71
2022/04/14 02:57:43;;;;;;;;;;;9.80;99.90;;;8.56;100.00;95579.03;10538667;28;2385;-69
2022/04/14 03:02:46;;;;;;;;;;;9.80;99.90;;;8.56;100.00;95581.69;10560690;28;1945;-70
2022/04/14 03:07:49;;;;;;;;;;;9.70;99.90;;;8.57;100.00;95590.53;10546027;28;1860;-70
2022/04/14 03:12:53;;;;;;;;;;;9.80;99.90;;;8.54;100.00;95589.22;10549955;28;1991;-70
2022/04/14 03:17:56;;;;;;;;;;;9.80;99.90;;;8.54;100.00;95593.75;10547902;28;2343;-69
2022/04/14 03:23:00;;;;;;;;;;;9.70;99.90;;;8.53;100.00;95598.31;10537811;28;1925;-70
2022/04/14 03:28:04;;;;;;;;;;;9.70;99.90;;;8.59;100.00;95596.47;10558299;27;1864;-71
2022/04/14 03:33:08;;;;;;;;;;;9.70;99.90;;;8.53;100.00;95601.00;10536103;28;1910;-71
2022/04/14 03:38:11;;;;;;;;;;;9.70;99.90;;;8.53;100.00;95598.31;10534983;28;1865;-70
2022/04/14 03:43:34;;;;;;;;;;;9.80;99.90;;;8.51;100.00;95603.13;10540125;28;2026;-71
2022/04/14 03:48:37;;;;;;;;;;;9.70;99.90;;;8.47;100.00;95609.28;10537495;28;1913;-71
2022/04/14 03:53:40;;;;;;;;;;;9.60;99.90;;;8.52;100.00;95612.75;10546925;28;1883;-71
2022/04/14 03:58:43;;;;;;;;;;;9.70;99.90;;;8.38;100.00;95617.00;10533545;28;2155;-70
2022/04/14 04:03:48;;;;;;;;;;;9.60;99.90;;;8.27;100.00;95620.69;10537051;28;2122;-70
2022/04/14 04:08:51;;;;;;;;;;;9.50;99.90;;;8.20;100.00;95622.81;10533449;28;2019;-70
2022/04/14 04:13:54;;;;;;;;;;;9.30;99.90;;;8.22;100.00;95628.72;10537947;28;1918;-70
2022/04/14 04:18:58;;;;;;;;;;;9.20;99.90;;;8.21;100.00;95638.63;10533693;28;1832;-71
2022/04/14 04:24:01;;;;;;;;;;;9.20;99.90;;;8.24;100.00;95635.41;10543810;28;2165;-70
2022/04/14 04:29:09;;;;;;;;;;;9.20;99.90;;;8.22;100.00;95634.06;10530966;28;2194;-70
2022/04/14 04:34:12;;;;;;;;;;;9.30;99.90;;;8.24;100.00;95645.31;10524037;28;2339;-69
2022/04/14 04:39:15;;;;;;;;;;;9.30;99.90;;;8.33;100.00;95639.22;10532305;28;1861;-69
2022/04/14 04:44:18;;;;;;;;;;;9.30;99.90;;;8.58;100.00;95643.84;10524192;28;2046;-69
2022/04/14 04:49:21;;;;;;;;;;;9.50;99.90;;;8.75;100.00;95646.31;10525856;28;1882;-69
2022/04/14 04:54:24;;;;;;;;;;;9.60;99.90;;;8.98;100.00;95653.06;10537583;28;1983;-69
2022/04/14 04:59:28;;;;;;;;;;;9.80;99.90;;;9.36;100.00;95650.94;10533118;28;1815;-69
2022/04/14 05:04:31;;;;;;;;;;;10.10;99.90;;;9.72;100.00;95649.81;10537090;28;2152;-70
2022/04/14 05:09:35;;;;;;;;;;;10.20;99.90;;;10.00;100.00;95653.00;10531593;28;2106;-70
2022/04/14 05:14:38;;;;;;;;;;;10.60;99.90;;;10.20;98.53;95647.56;10533470;28;2206;-70
2022/04/14 05:19:41;;;;;;;;;;;10.80;99.90;;;10.66;96.29;95657.34;10536193;28;1862;-69
2022/04/14 05:24:44;;;;;;;;;;;11.10;99.90;;;11.22;92.79;95652.44;10543700;28;2106;-69
2022/04/14 05:29:47;;;;;;;;;;;11.50;99.90;;;11.52;90.13;95659.50;10542542;28;1901;-69
2022/04/14 05:34:50;;;;;;;;;;;11.80;99.90;;;11.73;87.91;95649.34;10545539;28;1983;-69
2022/04/14 05:39:52;;;;;;;;;;;12.20;99.90;;;11.95;86.50;95650.75;10541184;28;1997;-70
2022/04/14 05:44:55;;;;;;;;;;;12.30;99.90;;;11.97;85.49;95651.31;10550346;28;2295;-70
2022/04/14 05:49:59;;;;;;;;;;;12.50;99.90;;;12.17;84.52;95651.09;10531133;28;2069;-69
2022/04/14 05:55:02;;;;;;;;;;;12.60;99.90;;;12.25;83.93;95652.34;10533383;28;1962;-68
2022/04/14 06:00:06;;;;;;;;;;;12.80;99.90;;;12.22;83.69;95663.72;10531717;28;1786;-69
2022/04/14 06:05:09;;;;;;;;;;;12.90;99.90;;;12.58;81.10;95658.69;10517319;28;2172;-69
2022/04/14 06:10:13;;;;;;;;;;;13.10;99.90;;;12.85;79.14;95653.50;10527801;28;1934;-67
2022/04/14 06:15:16;;;;;;;;;;;13.30;99.90;;;13.24;77.60;95665.94;10525836;28;1910;-67
2022/04/14 06:20:19;;;;;;;;;;;13.60;99.90;;;13.51;76.17;95657.94;10521683;28;1970;-68
2022/04/14 06:25:23;;;;;;;;;;;13.80;99.90;;;13.59;74.62;95661.84;10525985;28;2007;-70
2022/04/14 06:30:27;;;;;;;;;;;14.00;99.90;;;13.66;74.40;95669.56;10528193;28;1850;-68
2022/04/14 06:35:30;;;;;;;;;;;14.10;99.90;;;13.79;73.13;95668.81;10533165;28;1890;-68
2022/04/14 06:40:33;;;;;;;;;;;14.40;99.90;;;14.30;71.26;95673.31;10524794;28;1852;-69
2022/04/14 06:45:36;;;;;;;;;;;14.50;99.90;;;14.36;70.07;95682.13;10526543;28;1918;-67
2022/04/14 06:50:40;;;;;;;;;;;14.80;99.90;;;14.45;69.09;95685.75;10528857;28;1803;-69
2022/04/14 06:55:47;;;;;;;;;;;14.90;99.90;;;14.92;66.55;95689.97;10521368;28;2391;-68
2022/04/14 07:00:53;;;;;;;;;;;15.30;99.90;;;14.91;66.34;95688.34;10530898;28;1860;-69
2022/04/14 07:05:56;;;;;;;;;;;15.30;99.90;;;14.97;65.22;95689.84;10533568;28;2190;-68
2022/04/14 07:11:00;;;;;;;;;;;15.40;99.90;;;14.93;65.00;95691.56;10533608;28;1843;-69
2022/04/14 07:16:03;;;;;;;;;;;15.40;99.90;;;14.82;64.80;95685.56;10526187;28;1910;-69
2022/04/14 07:21:06;;;;;;;;;;;15.50;99.90;;;15.44;62.97;95690.44;10536963;28;1879;-69
2022/04/14 07:26:09;;;;;;;;;;;15.70;99.90;;;15.82;61.65;95684.69;10531025;28;1983;-69
2022/04/14 07:31:12;;;;;;;;;;;16.10;99.90;;;15.97;60.02;95688.91;10525156;28;1974;-69
2022/04/14 07:36:21;;;;;;;;;;;;;;;16.24;59.71;95696.91;10529052;28;1929;-70
2022/04/14 07:41:41;;;;;;;;;;;16.60;99.90;;;16.58;57.81;95698.97;10528885;28;2086;-68
2022/04/14 07:46:44;;;;;;;;;;;16.90;99.90;;;17.14;56.13;95700.13;10534567;28;2030;-71
2022/04/14 07:51:47;;;;;;;;;;;17.20;99.90;;;17.22;55.54;95695.81;10525619;28;1906;-72
2022/04/14 07:56:50;;;;;;;;;;;17.60;99.90;;;17.48;53.41;95701.28;10521039;28;2002;-68
2022/04/14 08:02:00;;;;;;;;;;;18.20;99.90;;;17.87;52.51;95707.69;10528608;28;1844;-68
2022/04/14 08:07:03;;;;;;;;;;;18.20;99.90;;;18.16;52.38;95705.09;10531693;28;1950;-69
2022/04/14 08:12:18;;;;;;;;;;;18.30;99.90;;;18.02;50.98;95709.94;10540445;28;2012;-69
2022/04/14 08:17:21;;;;;;;;;;;18.50;99.90;;;17.61;51.65;95710.41;10539245;28;1866;-69
2022/04/14 08:22:24;;;;;;;;;;;18.40;99.90;;;17.56;51.09;95720.31;10540537;28;1824;-68
2022/04/14 08:27:27;;;;;;;;;;;18.30;99.90;;;17.84;49.94;95730.91;10536766;28;3302;-68
2022/04/14 08:32:30;;;;;;;;;;;18.60;99.90;;;17.98;50.50;95719.84;10518606;28;1917;-69
2022/04/14 08:37:33;;;;;;;;;;;18.70;99.90;;;18.10;50.00;95725.44;10516655;28;1822;-68
2022/04/14 08:42:39;;;;;;;;;;;18.70;99.90;;;18.65;48.75;95721.94;10533730;28;1823;-69
2022/04/14 08:47:43;;;;;;;;;;;19.00;99.90;;;18.81;48.57;95720.28;10518988;28;1941;-68
2022/04/14 08:52:46;;;;;;;;;;;19.20;99.90;;;18.68;48.63;95726.75;10521174;28;1917;-69
2022/04/14 08:57:50;;;;;;;;;;;20.00;99.90;;;18.87;48.56;95723.63;10535850;28;1854;-71
2022/04/14 09:02:54;;;;;;;;;;;;;;;19.34;47.24;95729.81;10534786;28;1856;-70
2022/04/14 09:07:57;;;;;;;;;;;;;;;19.64;46.15;95735.22;10539060;28;1938;-70
2022/04/14 09:13:00;;;;;;;;;;;;;;;19.52;46.12;95722.28;10543412;28;2010;-70
2022/04/14 09:18:03;;;;;;;;;;;20.10;99.90;;;19.57;46.06;95721.28;10530881;28;1827;-70
2022/04/14 09:23:07;;;;;;;;;;;20.10;99.90;;;19.68;46.53;95726.06;10529421;28;1996;-70
2022/04/14 09:28:11;;;;;;;;;;;;;;;20.23;43.89;95729.56;10541821;28;1911;-69
2022/04/14 09:33:14;;;;;;;;;;;;;;;20.47;43.19;95726.16;10536314;28;1996;-70
2022/04/14 09:38:33;;;;;;;;;;;20.70;99.90;;;20.59;42.92;95728.13;10539267;28;1801;-70
2022/04/14 09:43:37;;;;;;;;;;;20.60;99.90;;;20.29;43.06;95719.25;10538016;28;1931;-69
2022/04/14 09:48:40;;;;;;;;;;;21.00;99.90;;;20.23;43.59;95718.66;10533067;28;1964;-70
2022/04/14 09:53:43;;;;;;;;;;;20.70;99.90;;;20.87;41.20;95718.16;10529104;28;1981;-71
2022/04/14 09:58:47;;;;;;;;;;;;;;;21.13;41.50;95722.47;10535836;28;1660;-71
2022/04/14 10:03:51;;;;;;;;;;;21.40;99.90;;;20.65;41.89;95715.84;10527562;28;1992;-74
2022/04/14 10:08:54;;;;;;;;;;;21.50;99.90;;;20.61;41.73;95717.63;10534488;28;1792;-70
2022/04/14 10:13:57;;;;;;;;;;;21.50;99.90;;;20.64;41.19;95706.06;10531247;28;1901;-71
2022/04/14 10:19:02;;;;;;;;;;;;;;;20.84;41.38;95704.34;10541244;28;1828;-72
2022/04/14 10:24:06;;;;;;;;;;;21.50;99.90;;;21.18;40.48;95716.75;10538731;28;1893;-71
2022/04/14 10:29:09;;;;;;;;;;;21.70;99.90;;;21.36;40.08;95709.16;10530351;28;1855;-71
2022/04/14 10:34:15;;;;;;;;;;;21.80;99.90;;;21.11;40.38;95713.81;10549025;28;1967;-71
2022/04/14 10:39:18;;;;;;;;;;;21.80;99.90;;;21.28;40.09;95708.94;10554957;28;1768;-71
2022/04/14 10:44:22;;;;;;;;;;;21.90;99.90;;;21.50;39.88;95709.56;10542605;28;1843;-70
2022/04/14 10:49:33;;;;;;;;;;;21.90;99.90;;;21.38;39.44;95702.22;10532922;28;1828;-70
2022/04/14 10:54:57;;;;;;;;;;;22.00;99.90;;;20.99;40.32;95698.19;10564877;28;1909;-71
2022/04/14 10:59:59;;;;;;;;;;;21.90;99.90;;;21.09;40.75;95703.22;10554403;28;1807;-71
2022/04/14 11:05:03;;;;;;;;;;;21.90;99.90;;;21.24;40.21;95701.72;10555936;27;1783;-71
2022/04/14 11:10:06;;;;;;;;;;;21.80;99.90;;;21.73;39.23;95698.94;10557659;28;1747;-69
2022/04/14 11:15:10;;;;;;;;;;;22.20;99.90;;;21.94;38.61;95691.31;10559649;28;1894;-70
2022/04/14 11:20:14;;;;;;;;;;;22.50;99.90;;;21.88;38.17;95705.59;10551337;28;1938;-70
2022/04/14 11:25:16;;;;;;;;;;;22.80;99.90;;;21.68;38.27;95699.97;10553161;28;1817;-71
2022/04/14 11:30:20;;;;;;;;;;;22.40;99.90;;;21.58;37.83;95695.78;10541549;28;1893;-72
2022/04/14 11:35:27;;;;;;;;;;;22.30;99.90;;;21.56;38.28;95698.03;10547592;28;1975;-72
2022/04/14 11:40:32;;;;;;;;;;;22.30;99.90;;;21.25;38.56;95704.13;10536164;28;1815;-71
2022/04/14 11:45:35;;;;;;;;;;;22.20;99.50;;;21.29;38.32;95690.59;10531363;28;2819;-73
2022/04/14 11:50:39;;;;;;;;;;;22.00;99.60;;;21.59;37.31;95680.16;10531743;28;2025;-72
2022/04/14 11:55:42;;;;;;;;;;;22.30;98.30;;;21.71;37.54;95688.34;10536932;28;1914;-72
2022/04/14 12:00:46;;;;;;;;;;;22.30;98.30;;;21.44;38.96;95683.59;10541888;28;1853;-72
2022/04/14 12:05:49;;;;;;;;;;;22.30;99.20;;;21.50;38.42;95682.22;10532588;28;1874;-72
2022/04/14 12:10:52;;;;;;;;;;;22.10;99.10;;;21.59;35.38;95685.63;10520404;28;1851;-75
2022/04/14 12:15:56;;;;;;;;;;;22.30;94.50;;;21.90;35.43;95678.69;10535325;28;1914;-70
2022/04/14 12:21:02;;;;;;;;;;;22.60;94.60;;;21.87;35.98;95674.69;10538364;28;1843;-70
2022/04/14 12:26:05;;;;;;;;;;;22.80;94.20;;;22.07;35.35;95665.47;10539432;28;1853;-69
2022/04/14 12:31:09;;;;;;;;;;;22.80;93.80;;;22.04;35.30;95668.94;10531526;28;1794;-70
2022/04/14 12:36:13;;;;;;;;;;;22.90;93.30;;;21.57;39.24;95661.38;10533502;28;1910;-72
2022/04/14 12:41:17;;;;;;;;;;;22.70;96.80;;;21.67;39.07;95660.06;10528386;28;1939;-71
2022/04/14 12:46:20;;;;;;;;;;;22.40;97.40;;;21.77;38.95;95662.31;10521345;28;1907;-72
2022/04/14 12:51:23;;;;;;;;;;;22.50;97.40;;;22.16;38.48;95675.53;10533595;28;1862;-71
2022/04/14 12:56:27;;;;;;;;;;;22.60;97.60;;;22.30;37.80;95670.44;10529975;28;1913;-72
2022/04/14 13:01:30;;;;;;;;;;;23.00;96.10;;;22.47;35.88;95667.38;10528845;28;1860;-73
2022/04/14 13:06:33;;;;;;;;;;;23.10;94.40;;;22.23;35.98;95665.56;10526909;28;1740;-73
2022/04/14 13:11:36;;;;;;;;;;;23.10;97.80;;;21.95;36.79;95665.56;10534780;28;1826;-71
2022/04/14 13:16:39;;;;;;;;;;;22.90;99.90;;;22.01;36.63;95663.34;10532212;28;1922;-72
2022/04/14 13:21:43;;;;;;;;;;;22.90;96.20;;;22.34;34.70;95665.84;10533063;28;1764;-71
2022/04/14 13:26:46;;;;;;;;;;;22.90;93.40;;;22.15;33.86;95663.78;10523136;28;1803;-71
2022/04/14 13:31:50;;;;;;;;;;;23.10;91.30;;;22.20;35.22;95657.25;10524082;28;1847;-71
2022/04/14 13:36:58;;;;;;;;;;;23.00;91.50;;;22.25;33.91;95657.00;10533737;28;2213;-71
2022/04/14 13:42:03;;;;;;;;;;;23.10;89.90;;;22.28;31.88;95657.09;10529031;28;1959;-73
2022/04/14 13:47:07;;;;;;;;;;;23.00;87.20;;;22.05;33.21;95645.88;10533045;28;1871;-72
2022/04/14 13:52:11;;;;;;;;;;;23.00;88.50;;;22.07;34.03;95651.78;10527689;28;2063;-72
2022/04/14 13:57:14;;;;;;;;;;;23.00;88.50;;;22.08;33.39;95649.88;10536647;28;1979;-72
2022/04/14 14:02:17;;;;;;;;;;;23.00;91.30;;;21.71;32.54;95644.56;10550990;27;1896;-72
2022/04/14 14:07:20;;;;;;;;;;;22.80;87.40;;;21.50;31.04;95652.97;10542563;28;1880;-71
2022/04/14 14:12:23;;;;;;;;;;;22.50;85.80;;;22.07;31.06;95634.56;10536810;28;1591;-71
2022/04/14 14:17:27;;;;;;;;;;;22.50;85.80;;;22.43;31.60;95644.56;10537089;28;1906;-72
2022/04/14 14:22:29;;;;;;;;;;;22.80;85.50;;;22.65;31.61;95643.16;10532913;28;1873;-70
2022/04/14 14:27:33;;;;;;;;;;;23.20;86.60;;;22.11;35.05;95641.78;10536431;28;1851;-71
2022/04/14 14:32:37;;;;;;;;;;;23.20;87.90;;;21.66;36.80;95638.53;10532715;28;1866;-71
2022/04/14 14:37:40;;;;;;;;;;;22.70;90.70;;;21.43;37.92;95639.06;10531667;28;1990;-70
2022/04/14 14:42:43;;;;;;;;;;;22.40;92.80;;;21.57;37.64;95650.44;10526571;28;1844;-71
2022/04/14 14:47:47;;;;;;;;;;;22.30;92.40;;;21.52;37.81;95647.13;10530304;28;1851;-72
2022/04/14 14:52:52;;;;;;;;;;;22.40;93.20;;;21.76;36.66;95635.31;10526349;28;1867;-72
2022/04/14 15:03:17;;;;;;;;;;;22.60;89.60;;;21.79;35.42;95645.56;10567797;27;1460;-73
2022/04/14 15:08:20;;;;;;;;;;;22.50;88.30;;;21.79;35.30;95638.13;10556027;28;1840;-72
2022/04/14 15:13:23;;;;;;;;;;;22.50;87.60;;;21.63;35.45;95642.78;10560366;28;1426;-73
2022/04/14 15:18:26;;;;;;;;;;;22.40;91.10;;;21.72;35.20;95645.34;10569953;27;1910;-72
2022/04/14 15:23:29;;;;;;;;;;;22.40;89.70;;;21.53;34.34;95657.72;10555428;28;1449;-72
2022/04/14 15:28:33;;;;;;;;;;;22.50;85.50;;;21.38;32.72;95658.47;10556284;28;1570;-73
2022/04/14 15:33:35;;;;;;;;;;;22.30;83.40;;;21.35;31.54;95664.59;10563114;28;1509;-72
2022/04/14 15:38:39;;;;;;;;;;;22.10;81.50;;;20.93;30.40;95674.97;10558105;28;1918;-71
2022/04/14 15:43:43;;;;;;;;;;;22.00;79.10;;;20.87;31.19;95668.19;10560243;28;1446;-72
2022/04/14 15:48:47;;;;;;;;;;;21.70;79.70;;;21.03;32.04;95675.31;10555751;28;2995;-69
2022/04/14 15:53:51;;;;;;;;;;;21.80;85.20;;;21.21;32.11;95670.41;10294313;22;1924;-75
2022/04/14 15:58:54;;;;;;;;;;;22.00;85.00;;;21.19;34.23;95674.66;10262139;28;1903;-74
2022/04/14 16:03:57;;;;;;;;;;;21.90;84.30;;;21.33;33.01;95677.84;10285679;28;1524;-73
2022/04/14 16:09:04;;;;;;;;;;;22.00;83.00;;;21.12;33.39;95682.59;10284635;28;1579;-74
2022/04/14 16:14:08;;;;;;;;;;;21.80;82.70;;;20.74;34.04;95694.66;10284469;28;1984;-74
2022/04/14 16:19:11;;;;;;;;;;;21.70;84.30;;;20.57;34.31;95683.97;10281607;28;1481;-72
2022/04/14 16:24:19;;;;;;;;;;;21.50;83.10;;;20.34;35.20;95684.34;10290883;28;1525;-74
2022/04/14 16:29:23;;;;;;;;;;;21.20;83.90;;;20.29;35.54;95690.00;10284688;28;1493;-73
2022/04/14 16:34:26;;;;;;;;;;;21.10;84.60;;;20.30;35.89;95691.63;10316096;28;1987;-75
2022/04/14 16:39:29;;;;;;;;;;;21.10;86.40;;;20.34;35.57;95692.53;10279625;28;1472;-75
2022/04/14 16:44:32;;;;;;;;;;;21.10;84.80;;;20.29;35.63;95692.75;10278330;28;1566;-74
2022/04/14 16:49:41;;;;;;;;;;;21.10;84.60;;;20.42;35.60;95699.03;10277539;28;1529;-74
2022/04/14 16:54:47;;;;;;;;;;;21.20;84.90;;;20.49;35.89;95702.84;10278307;28;1914;-73
2022/04/14 16:59:52;;;;;;;;;;;21.20;85.10;;;20.34;35.98;95691.72;10277725;28;1469;-75
2022/04/14 17:04:55;;;;;;;;;;;21.20;84.90;;;20.25;36.57;95703.56;10276733;28;1598;-73
2022/04/14 17:09:59;;;;;;;;;;;21.10;85.70;;;20.04;37.18;95710.16;10289361;28;1863;-73
2022/04/14 17:15:04;;;;;;;;;;;21.00;86.00;;;19.85;37.81;95711.50;10281949;28;1997;-75
2022/04/14 17:20:08;;;;;;;;;;;20.80;86.30;;;19.69;38.32;95713.22;10283759;28;1632;-75
2022/04/14 17:25:12;;;;;;;;;;;20.60;86.80;;;19.54;38.98;95714.59;10283206;28;1508;-75
2022/04/14 17:30:15;;;;;;;;;;;20.50;87.50;;;19.37;39.55;95720.94;10281897;28;1563;-75
2022/04/14 17:35:18;;;;;;;;;;;20.40;88.00;;;19.31;39.80;95726.94;10282723;28;1980;-74
2022/04/14 17:40:21;;;;;;;;;;;20.30;88.60;;;19.02;40.75;95730.44;10285104;28;1428;-73
2022/04/14 17:45:25;;;;;;;;;;;20.00;88.90;;;18.84;41.39;95735.19;10282981;28;1980;-73
2022/04/14 17:50:29;;;;;;;;;;;19.90;89.60;;;18.71;42.58;95737.00;10281848;28;1452;-72
2022/04/14 17:55:36;;;;;;;;;;;19.70;90.70;;;18.39;43.77;95735.63;10283017;28;1915;-73
2022/04/14 18:00:40;;;;;;;;;;;19.60;91.50;;;18.11;44.91;95737.91;10282972;28;1507;-74
2022/04/14 18:05:42;;;;;;;;;;;19.40;92.70;;;17.99;45.88;95749.44;10281764;28;1612;-73
2022/04/14 18:10:46;;;;;;;;;;;19.20;94.00;;;17.89;46.83;95759.88;10281926;28;1409;-74
2022/04/14 18:15:48;;;;;;;;;;;19.00;94.90;;;17.87;47.18;95770.25;10282618;28;2258;-72
2022/04/14 18:20:52;;;;;;;;;;;18.90;95.70;;;17.72;47.42;95769.59;10296049;28;1376;-74
2022/04/14 18:25:55;;;;;;;;;;;18.70;95.80;;;17.60;47.89;95784.91;10279392;28;1516;-73
2022/04/14 18:30:58;;;;;;;;;;;18.70;96.20;;;17.44;48.30;95790.00;10281348;28;1757;-74
2022/04/14 18:36:02;;;;;;;;;;;18.50;96.50;;;17.29;48.52;95802.09;10283001;28;1981;-74
2022/04/14 18:41:05;;;;;;;;;;;18.40;97.00;;;17.13;48.71;95803.66;10284873;28;1505;-74
2022/04/14 18:46:08;;;;;;;;;;;18.30;96.90;;;17.23;48.35;95809.59;10282720;28;1500;-74
2022/04/14 18:51:12;;;;;;;;;;;18.30;97.20;;;17.10;49.02;95817.84;10279820;28;1515;-74
2022/04/14 18:56:16;;;;;;;;;;;18.20;97.10;;;16.96;49.17;95821.47;10279859;28;1915;-74
2022/04/14 19:01:20;;;;;;;;;;;18.00;97.50;;;16.76;49.52;95824.75;10280616;28;1571;-74
2022/04/14 19:06:24;;;;;;;;;;;17.80;97.50;;;16.74;49.55;95833.19;10280285;28;1509;-75
2022/04/14 19:11:28;;;;;;;;;;;17.80;97.80;;;16.72;48.90;95829.97;10279411;28;1632;-75
2022/04/14 19:16:31;;;;;;;;;;;17.80;97.70;;;16.52;50.05;95843.25;10287152;28;1986;-74
2022/04/14 19:21:34;;;;;;;;;;;17.70;98.20;;;16.31;51.27;95843.75;10281540;28;1481;-74
2022/04/14 19:26:37;;;;;;;;;;;17.60;98.80;;;16.12;52.00;95851.25;10284585;28;1716;-74
2022/04/14 19:31:41;;;;;;;;;;;17.40;99.60;;;16.12;51.91;95860.19;10288902;28;1499;-73
2022/04/14 19:36:44;;;;;;;;;;;17.30;99.80;;;16.21;51.71;95866.47;10281323;28;1981;-74
2022/04/14 19:41:48;;;;;;;;;;;17.20;99.90;;;16.25;51.67;95866.66;10281950;28;1548;-74
2022/04/14 19:46:52;;;;;;;;;;;17.20;99.90;;;16.19;51.94;95874.13;10278442;28;1593;-74
2022/04/14 19:51:55;;;;;;;;;;;17.20;99.90;;;16.09;52.40;95874.34;10279627;28;1529;-74
2022/04/14 19:56:58;;;;;;;;;;;17.10;99.90;;;15.98;52.90;95873.00;10279671;28;1918;-73
2022/04/14 20:02:01;;;;;;;;;;;17.10;99.90;;;15.85;53.31;95873.81;10278875;28;1594;-74
2022/04/14 20:07:06;;;;;;;;;;;16.90;99.90;;;15.87;52.92;95871.59;10276261;28;1713;-73
2022/04/14 20:12:10;;;;;;;;;;;16.90;99.90;;;15.73;53.40;95870.84;10282932;28;1521;-72
2022/04/14 20:17:13;;;;;;;;;;;16.80;99.90;;;15.72;54.02;95885.50;10282349;28;1918;-73
2022/04/14 20:22:16;;;;;;;;;;;16.70;99.90;;;15.58;54.27;95882.75;10279070;28;1556;-74
2022/04/14 20:27:19;;;;;;;;;;;16.70;99.90;;;15.45;54.93;95883.56;10277383;28;1581;-73
2022/04/14 20:32:23;;;;;;;;;;;16.50;99.90;;;15.48;54.98;95886.47;10279286;28;1496;-73
2022/04/14 20:37:26;;;;;;;;;;;16.50;99.90;;;15.53;54.68;95880.97;10276604;28;1922;-73
2022/04/14 20:42:30;;;;;;;;;;;16.50;99.90;;;15.51;55.36;95880.44;10288519;28;1468;-72
2022/04/14 20:47:34;;;;;;;;;;;16.40;99.90;;;15.29;56.27;95888.47;10287248;28;1447;-74
2022/04/14 20:52:38;;;;;;;;;;;16.40;99.90;;;15.12;57.17;95892.56;10295078;28;1457;-73
2022/04/14 20:57:41;;;;;;;;;;;16.30;99.90;;;14.95;57.80;95883.41;10295252;28;1956;-73
2022/04/14 21:02:45;;;;;;;;;;;16.10;99.90;;;14.95;58.11;95894.25;10284075;28;1636;-74
2022/04/14 21:07:48;;;;;;;;;;;16.00;99.90;;;14.79;59.15;95888.31;10283830;28;1443;-74
2022/04/14 21:12:52;;;;;;;;;;;15.90;99.90;;;14.66;59.97;95897.19;10284036;28;1513;-75
2022/04/14 21:17:57;;;;;;;;;;;15.80;99.90;;;14.60;60.31;95899.97;10286264;28;1907;-74
2022/04/14 21:23:00;;;;;;;;;;;15.70;99.90;;;14.55;61.10;95902.75;10297818;28;1601;-74
2022/04/14 21:28:03;;;;;;;;;;;15.60;99.90;;;14.47;61.51;95906.16;10294167;28;1489;-73
2022/04/14 21:33:08;;;;;;;;;;;15.50;99.90;;;14.33;62.19;95926.91;10293660;28;1465;-73
2022/04/14 21:38:12;;;;;;;;;;;15.50;99.90;;;14.33;63.05;95921.50;10305231;28;1978;-72
2022/04/14 21:43:35;;;;;;;;;;;15.40;99.90;;;14.15;64.00;95925.00;10307310;28;1435;-74
2022/04/14 21:48:39;;;;;;;;;;;15.30;99.90;;;14.02;65.59;95938.16;10297803;28;1475;-73
2022/04/14 21:53:42;;;;;;;;;;;15.20;99.90;;;13.89;66.52;95936.16;10286459;28;1405;-73
2022/04/14 21:58:45;;;;;;;;;;;15.00;99.90;;;13.81;67.57;95936.81;10476869;23;1951;-72
2022/04/14 22:03:49;;;;;;;;;;;14.90;99.90;;;13.60;68.85;95940.84;10578137;27;1847;-71
2022/04/14 22:08:52;;;;;;;;;;;14.80;99.90;;;13.57;69.27;95941.44;10538343;28;1548;-72
2022/04/14 22:13:55;;;;;;;;;;;14.70;99.90;;;13.48;70.85;95950.16;10519164;28;1474;-72
2022/04/14 22:18:59;;;;;;;;;;;14.50;99.90;;;13.45;71.08;95968.84;10528937;28;1934;-73
2022/04/14 22:24:04;;;;;;;;;;;14.50;99.90;;;13.48;72.26;95979.06;10531533;28;1569;-71
2022/04/14 22:29:07;;;;;;;;;;;14.40;99.90;;;13.68;72.00;95986.94;10525904;28;1636;-72
2022/04/14 22:34:11;;;;;;;;;;;14.50;99.90;;;13.76;71.93;95983.59;10526319;28;1447;-72
2022/04/14 22:39:15;;;;;;;;;;;14.60;99.90;;;13.85;71.96;95988.38;10526425;28;1976;-72
2022/04/14 22:44:19;;;;;;;;;;;14.60;99.90;;;13.86;72.66;95996.16;10524998;28;1443;-72
2022/04/14 22:49:23;;;;;;;;;;;14.70;99.90;;;13.91;74.44;96006.94;10520096;28;1470;-72
2022/04/14 22:54:26;;;;;;;;;;;14.70;99.90;;;13.95;75.92;96004.47;10514282;28;1522;-72
2022/04/14 22:59:29;;;;;;;;;;;14.70;99.90;;;13.91;77.21;96000.72;10515737;28;2032;-72
2022/04/14 23:04:32;;;;;;;;;;;14.70;99.90;;;13.89;79.55;96005.63;10524648;28;1581;-71
2022/04/14 23:09:36;;;;;;;;;;;14.70;99.90;;;13.84;82.22;96016.47;10531274;28;1529;-72
2022/04/14 23:14:39;;;;;;;;;;;14.70;99.90;;;13.81;84.44;96017.88;10524226;28;1441;-72
2022/04/14 23:19:42;;;;;;;;;;;14.60;99.90;;;13.71;87.53;96002.56;10516674;28;1910;-71
2022/04/14 23:24:45;;;;;;;;;;;14.70;99.90;;;13.56;91.84;96008.16;10523243;28;1539;-72